Poynor, Texas
Current Conditions -  °F | °C
As of 1:15 PM on Friday 28 Nov 2014 (Local Time) from KF44 Reporting Station
Overcast Overcast  
Wind Chill: 64°   Ceiling: 3400
Heat Index: 64°   Visibility: 10mi
Dew Point: 48°   Wind: 9mph
Humidity: 56%   Direction: 200°SSW
Pressure: 30.16"   Gusts: NA
Location:  32.07°N, 95.6°W
Report Text: KF44 281915Z AUTO 20008KT 170V230 10SM OVC034 18/09 A3016 RMK AO2
Loading
Personal Weather Stations






























Interactive Weather Map New forecast layout! Learn more

10-Day Weather Forecast

Advertisements
Track Severe Weather on mobile